Time;durP1;ratioP1;P1;durP2;ratioP2;P2;SDS_P1;SDS_P2;PMS_P1;PMS_P2;Temp;Humidity;BMP_temperature;BMP_pressure;BME280_temperature;BME280_humidity;BME280_pressure;Samples;Min_cycle;Max_cycle;Signal;HPM_P1;HPM_P2
2022/11/28 09:32:11;;;;;;;13.03;11.63;;;;;;;4.60;91.00;102642.12;1797574;78;27007;-58
2022/11/28 09:34:38;;;;;;;12.10;10.20;;;;;;;5.52;83.50;102637.25;1759257;80;21659;-58
2022/11/28 09:37:04;;;;;;;14.60;11.15;;;;;;;5.78;81.47;102636.27;1757331;80;21064;-58
2022/11/28 09:39:31;;;;;;;14.13;11.50;;;;;;;5.92;80.55;102632.38;1757627;80;21034;-58
2022/11/28 09:42:21;;;;;;;14.90;12.35;;;;;;;6.03;80.00;102630.97;1751877;80;21025;-58
2022/11/28 09:45:08;;;;;;;12.73;11.40;;;;;;;6.11;79.38;102629.86;1742811;82;21025;-57
2022/11/28 09:47:35;;;;;;;12.95;11.63;;;;;;;5.93;79.96;102632.85;1725758;82;21144;-57
2022/11/28 09:50:13;;;;;;;11.33;10.08;;;;;;;6.21;78.73;102627.56;1715404;82;21046;-58
2022/11/28 09:52:54;;;;;;;10.55;9.30;;;;;;;6.30;78.08;102631.69;1682008;84;21122;-58
2022/11/28 09:55:44;;;;;;;11.05;9.73;;;;;;;6.39;77.81;102626.73;1633318;87;21584;-57
2022/11/28 09:58:24;;;;;;;11.95;9.90;;;;;;;6.47;77.22;102622.61;1604689;89;21086;-58
2022/11/28 10:00:56;;;;;;;11.60;9.23;;;;;;;6.50;76.57;102612.36;1628766;87;21070;-57
2022/11/28 10:03:58;;;;;;;11.80;8.73;;;;;;;6.56;76.39;102615.09;1632067;87;21134;-58
2022/11/28 10:06:41;;;;;;;10.32;8.90;;;;;;;6.64;75.92;102614.38;1636408;87;21030;-58
2022/11/28 10:09:30;;;;;;;10.10;8.43;;;;;;;6.44;76.48;102613.51;1592999;90;21526;-57
2022/11/28 10:12:28;;;;;;;11.40;9.00;;;;;;;6.45;76.38;102603.60;1627137;87;21590;-57
2022/11/28 10:15:03;;;;;;;11.93;8.93;;;;;;;6.74;75.02;102606.03;1623750;87;21075;-58
2022/11/28 10:18:16;;;;;;;11.73;9.93;;;;;;;6.83;74.53;102606.22;1579935;90;21222;-57
2022/11/28 10:20:45;;;;;;;11.30;8.68;;;;;;;6.88;74.24;102594.27;1492316;94;21711;-57
2022/11/28 10:23:25;;;;;;;10.72;8.90;;;;;;;6.94;73.80;102597.00;1465689;96;21139;-58
2022/11/28 10:25:55;;;;;;;9.35;8.33;;;;;;;6.96;73.43;102596.61;1463805;96;21170;-58
2022/11/28 10:28:33;;;;;;;9.98;8.33;;;;;;;6.99;73.38;102595.37;1488967;96;21239;-57
2022/11/28 10:31:32;;;;;;;10.18;8.98;;;;;;;7.03;73.08;102597.18;1485135;95;21157;-57
2022/11/28 10:34:38;;;;;;;9.85;8.85;;;;;;;7.04;72.71;102593.77;1467117;96;21524;-57
2022/11/28 10:37:29;;;;;;;11.18;9.45;;;;;;;7.04;72.56;102583.41;1486329;93;21215;-57
2022/11/28 10:39:59;;;;;;;10.28;9.03;;;;;;;6.99;73.08;102582.42;1521656;93;21640;-58
2022/11/28 10:42:31;;;;;;;9.55;8.45;;;;;;;7.12;72.76;102585.74;1514488;93;21146;-57
2022/11/28 10:45:27;;;;;;;11.57;8.60;;;;;;;7.18;72.57;102583.28;1498894;93;21651;-58
2022/11/28 10:48:33;;;;;;;11.30;8.88;;;;;;;7.19;72.46;102582.01;1480292;96;21152;-58
2022/11/28 10:51:05;;;;;;;10.28;9.15;;;;;;;7.23;72.34;102582.97;1485788;96;21119;-58
2022/11/28 10:54:21;;;;;;;11.78;8.98;;;;;;;7.25;72.03;102574.38;1476355;96;21652;-58
2022/11/28 10:57:32;;;;;;;11.00;9.05;;;;;;;7.26;72.17;102571.37;1498281;94;21093;-58
2022/11/28 11:00:04;;;;;;;10.13;8.33;;;;;;;7.28;72.15;102570.98;1484391;96;21156;-59
2022/11/28 11:02:49;;;;;;;9.83;7.85;;;;;;;7.31;72.06;102571.05;1474597;96;21136;-58
2022/11/28 11:05:20;;;;;;;9.25;8.00;;;;;;;7.30;71.86;102565.41;1481600;96;21103;-58
2022/11/28 11:08:00;;;;;;;10.45;7.80;;;;;;;7.32;71.85;102559.84;1424897;98;21260;-57
2022/11/28 11:10:43;;;;;;;8.83;7.22;;;;;;;7.29;71.77;102562.38;1449551;97;21669;-58
2022/11/28 11:13:27;;;;;;;10.63;7.78;;;;;;;7.32;71.83;102557.25;1448437;98;21198;-58
2022/11/28 11:16:10;;;;;;;8.90;7.95;;;;;;;7.37;71.85;102555.64;1452923;97;21189;-58
2022/11/28 11:18:47;;;;;;;9.25;7.90;;;;;;;7.40;71.36;102559.56;1454256;98;21668;-57
2022/11/28 11:21:25;;;;;;;12.37;10.28;;;;;;;7.38;71.47;102552.19;1449226;96;22663;-57
2022/11/28 11:24:15;;;;;;;12.93;10.25;;;;;;;7.39;71.50;102558.72;1490464;95;21089;-58
2022/11/28 11:26:46;;;;;;;13.95;9.95;;;;;;;7.43;71.47;102551.87;1440268;96;21157;-58
2022/11/28 11:29:28;;;;;;;11.53;9.53;;;;;;;7.45;71.26;102541.12;1403925;100;21668;-58
2022/11/28 11:31:55;;;;;;;11.70;10.13;;;;;;;7.43;71.30;102540.22;1391890;101;21693;-57
2022/11/28 11:34:22;;;;;;;10.15;9.05;;;;;;;7.41;71.27;102536.72;1387611;101;21803;-58
2022/11/28 11:36:49;;;;;;;11.78;9.28;;;;;;;7.39;71.40;102530.64;1389890;102;21177;-58
2022/11/28 11:39:22;;;;;;;11.57;9.00;;;;;;;7.38;71.43;102532.77;1392745;101;21217;-58
2022/11/28 11:41:53;;;;;;;12.07;9.50;;;;;;;7.37;71.42;102532.33;1395049;101;21144;-57
2022/11/28 11:44:28;;;;;;;11.12;9.33;;;;;;;7.37;71.56;102534.92;1354962;103;21143;-58
2022/11/28 11:47:07;;;;;;;11.08;9.48;;;;;;;7.35;71.63;102527.55;1392735;101;21145;-58
2022/11/28 11:49:47;;;;;;;11.15;9.38;;;;;;;7.34;71.43;102528.37;1377796;101;21196;-58
2022/11/28 11:52:23;;;;;;;9.25;8.13;;;;;;;7.27;71.51;102525.23;1392634;102;21137;-58
2022/11/28 11:55:04;;;;;;;11.28;9.15;;;;;;;7.23;71.66;102524.72;1387042;101;21227;-58
2022/11/28 11:57:41;;;;;;;11.05;8.95;;;;;;;7.21;71.78;102525.11;1380364;102;21143;-58
2022/11/28 12:00:19;;;;;;;9.70;8.50;;;;;;;7.22;72.13;102526.84;1378581;102;21198;-58
2022/11/28 12:02:58;;;;;;;13.35;10.85;;;;;;;7.24;72.06;102522.15;1390411;102;21149;-58
2022/11/28 12:05:36;;;;;;;11.30;9.63;;;;;;;7.25;71.83;102517.41;1394474;102;21198;-58
2022/11/28 12:08:30;;;;;;;11.75;9.33;;;;;;;7.25;71.96;102521.30;1392778;100;21137;-58
2022/11/28 12:11:25;;;;;;;10.72;8.88;;;;;;;7.37;71.73;102517.67;1414151;99;21653;-57
2022/11/28 12:13:52;;;;;;;12.50;9.53;;;;;;;7.25;72.09;102511.38;1453757;96;21159;-57
2022/11/28 12:16:36;;;;;;;12.20;9.98;;;;;;;7.21;72.28;102514.75;1455341;97;21087;-58
2022/11/28 12:19:33;;;;;;;12.65;9.48;;;;;;;7.01;72.83;102517.33;1456480;98;21303;-57
2022/11/28 12:22:29;;;;;;;13.32;9.75;;;;;;;6.93;73.33;102515.02;1452684;97;21121;-57
2022/11/28 12:25:05;;;;;;;13.15;10.82;;;;;;;6.91;73.55;102517.58;1454175;94;21107;-57
2022/11/28 12:27:46;;;;;;;11.75;10.15;;;;;;;7.20;72.60;102519.46;1530165;92;21120;-57
2022/11/28 12:30:50;;;;;;;15.35;11.70;;;;;;;7.24;72.57;102519.97;1534385;91;21089;-57
2022/11/28 12:33:56;;;;;;;12.65;10.08;;;;;;;7.26;72.71;102516.99;1546459;92;21548;-58
2022/11/28 12:36:52;;;;;;;14.70;11.53;;;;;;;7.30;72.62;102518.80;1556751;92;21048;-59
2022/11/28 12:39:50;;;;;;;17.27;12.80;;;;;;;7.28;72.58;102511.01;1542272;91;21575;-57
2022/11/28 12:42:54;;;;;;;15.93;12.25;;;;;;;7.26;72.72;102511.81;1560636;90;21093;-59
2022/11/28 12:45:47;;;;;;;15.88;11.55;;;;;;;7.26;72.87;102511.41;1600451;86;21561;-57
2022/11/28 12:48:28;;;;;;;16.37;11.75;;;;;;;7.27;72.94;102513.58;1649388;86;21121;-57
2022/11/28 12:51:00;;;;;;;15.08;11.33;;;;;;;7.28;72.84;102524.37;1560381;90;21119;-57
2022/11/28 12:53:57;;;;;;;13.38;10.82;;;;;;;7.26;72.88;102522.17;1543879;92;21149;-57
2022/11/28 12:56:57;;;;;;;14.78;11.30;;;;;;;7.26;72.91;102528.64;1545862;89;21043;-57
2022/11/28 12:59:44;;;;;;;16.27;12.37;;;;;;;7.28;72.99;102520.48;1591500;88;21078;-57
2022/11/28 13:02:39;;;;;;;25.32;12.65;;;;;;;7.29;72.99;102520.95;1597108;88;21034;-59
2022/11/28 13:05:21;;;;;;;15.78;12.80;;;;;;;7.30;73.07;102514.91;1612729;86;21510;-57
2022/11/28 13:08:19;;;;;;;17.62;11.80;;;;;;;7.30;73.11;102512.33;1558314;90;21138;-57
2022/11/28 13:11:27;;;;;;;17.82;12.58;;;;;;;7.30;73.19;102509.73;1537500;91;21642;-59
2022/11/28 13:14:15;;;;;;;14.45;11.70;;;;;;;7.31;73.28;102512.38;1521880;92;21070;-57
2022/11/28 13:16:52;;;;;;;17.62;11.05;;;;;;;7.35;73.37;102513.30;1531114;92;21103;-57
2022/11/28 13:19:51;;;;;;;15.23;11.75;;;;;;;7.34;73.43;102516.72;1561697;90;21895;-58
2022/11/28 13:22:26;;;;;;;13.25;10.78;;;;;;;7.32;73.58;102518.41;1557340;90;21090;-58
2022/11/28 13:25:10;;;;;;;15.53;11.88;;;;;;;7.36;73.53;102513.73;1557513;90;21108;-60
2022/11/28 13:27:45;;;;;;;14.93;11.60;;;;;;;7.39;73.54;102520.28;1565638;89;21189;-57
